createdAt,value
2019-04-16T00:01:57.464Z,51.00
2019-04-16T00:04:30.091Z,50.99
2019-04-16T00:07:15.816Z,51.47
2019-04-16T00:09:45.912Z,51.02
2019-04-16T00:12:25.101Z,51.16
2019-04-16T00:14:54.967Z,51.49
2019-04-16T00:17:23.521Z,52.76
2019-04-16T00:19:51.746Z,52.00
2019-04-16T00:22:37.836Z,52.28
2019-04-16T00:25:06.502Z,52.34
2019-04-16T00:27:34.739Z,52.49
2019-04-16T00:30:05.275Z,52.67
2019-04-16T00:32:33.873Z,52.82
2019-04-16T00:35:02.101Z,53.20
2019-04-16T00:37:30.333Z,53.42
2019-04-16T00:39:58.778Z,53.67
2019-04-16T00:42:27.016Z,53.91
2019-04-16T00:44:55.599Z,53.75
2019-04-16T00:47:23.867Z,53.62
2019-04-16T00:49:52.094Z,54.84
2019-04-16T00:52:20.423Z,54.63
2019-04-16T00:54:48.644Z,54.37
2019-04-16T00:57:18.020Z,55.03
2019-04-16T00:59:47.173Z,54.20
2019-04-16T01:02:15.865Z,54.84
2019-04-16T01:04:44.316Z,54.97
2019-04-16T01:07:12.538Z,57.02
2019-04-16T01:09:40.993Z,57.90
2019-04-16T01:12:09.257Z,58.07
2019-04-16T01:14:37.450Z,56.86
2019-04-16T01:17:05.821Z,56.10
2019-04-16T01:19:34.077Z,57.22
2019-04-16T01:22:02.361Z,56.46
2019-04-16T01:24:30.562Z,57.01
2019-04-16T01:26:59.145Z,56.87
2019-04-16T01:29:27.494Z,56.44
2019-04-16T01:32:11.373Z,56.98
2019-04-16T01:34:50.277Z,57.21
2019-04-16T01:37:20.434Z,58.81
2019-04-16T01:39:52.970Z,58.51
2019-04-16T01:42:23.666Z,57.88
2019-04-16T01:44:51.149Z,57.46
2019-04-16T01:47:19.477Z,57.53
2019-04-16T01:49:47.920Z,57.92
2019-04-16T01:52:18.741Z,58.17
2019-04-16T01:54:46.329Z,58.37
2019-04-16T01:57:14.551Z,58.42
2019-04-16T01:59:42.786Z,58.69
2019-04-16T02:02:14.632Z,58.15
2019-04-16T02:04:40.965Z,58.66
2019-04-16T02:07:09.188Z,60.01
2019-04-16T02:09:37.646Z,59.04
2019-04-16T02:12:05.865Z,58.73
2019-04-16T02:14:34.090Z,59.08
2019-04-16T02:17:02.321Z,60.69
2019-04-16T02:19:32.857Z,59.83
2019-04-16T02:22:00.497Z,59.26
2019-04-16T02:24:28.944Z,60.46
2019-04-16T02:26:57.178Z,59.22
2019-04-16T02:29:29.796Z,59.18
2019-04-16T02:31:55.588Z,60.11
2019-04-16T02:34:24.041Z,59.55
2019-04-16T02:36:52.277Z,59.50
2019-04-16T02:39:25.577Z,59.15
2019-04-16T02:41:56.819Z,59.69
2019-04-16T02:44:20.400Z,59.56
2019-04-16T02:46:48.853Z,60.58
2019-04-16T02:49:22.995Z,60.69
2019-04-16T02:51:51.799Z,60.28
2019-04-16T02:54:21.656Z,61.26
2019-04-16T02:56:57.358Z,60.73
2019-04-16T02:59:30.532Z,60.64
2019-04-16T03:02:00.402Z,60.66
2019-04-16T03:04:35.925Z,60.31
2019-04-16T03:07:04.573Z,61.01
2019-04-16T03:09:32.763Z,60.11
2019-04-16T03:12:00.995Z,60.03
2019-04-16T03:14:29.992Z,60.40
2019-04-16T03:17:03.242Z,60.64
2019-04-16T03:19:33.327Z,60.67
2019-04-16T03:22:02.866Z,60.44
2019-04-16T03:24:31.267Z,61.69
2019-04-16T03:26:59.508Z,60.52
2019-04-16T03:29:30.586Z,63.12
2019-04-16T03:31:59.401Z,60.72
2019-04-16T03:34:27.850Z,61.48
2019-04-16T03:36:58.670Z,60.84
2019-04-16T03:39:26.247Z,61.16
2019-04-16T03:41:56.172Z,61.98
2019-04-16T03:44:24.421Z,60.96
2019-04-16T03:46:52.658Z,60.91
2019-04-16T03:49:20.883Z,61.24
2019-04-16T03:51:49.130Z,60.99
2019-04-16T03:54:18.879Z,61.24
2019-04-16T03:56:47.298Z,60.95
2019-04-16T03:59:15.761Z,60.98
2019-04-16T04:01:46.169Z,61.16
2019-04-16T04:04:14.103Z,62.36
2019-04-16T04:06:42.556Z,61.50
2019-04-16T04:09:11.017Z,61.50
2019-04-16T04:11:41.242Z,62.76
2019-04-16T04:14:09.642Z,61.55
2019-04-16T04:16:37.867Z,61.55
2019-04-16T04:19:06.093Z,64.94
2019-04-16T04:21:34.312Z,65.44
2019-04-16T04:24:02.776Z,65.32
2019-04-16T04:26:30.989Z,63.18
2019-04-16T04:28:59.220Z,64.36
2019-04-16T04:31:31.997Z,63.48
2019-04-16T04:33:57.621Z,65.50
2019-04-16T04:36:27.171Z,64.26
2019-04-16T04:38:55.792Z,65.26
2019-04-16T04:41:24.270Z,64.89
2019-04-16T04:43:53.347Z,65.67
2019-04-16T04:46:21.570Z,64.57
2019-04-16T04:48:55.076Z,64.67
2019-04-16T04:51:19.744Z,63.76
2019-04-16T04:53:50.263Z,63.29
2019-04-16T04:56:19.578Z,63.42
2019-04-16T04:58:47.891Z,64.42
2019-04-16T05:01:16.559Z,63.79
2019-04-16T05:04:04.462Z,64.13
2019-04-16T05:06:37.281Z,66.60
2019-04-16T05:09:06.446Z,63.38
2019-04-16T05:11:34.669Z,62.91
2019-04-16T05:14:02.906Z,64.76
2019-04-16T05:16:31.476Z,64.27
2019-04-16T05:19:01.066Z,63.50
2019-04-16T05:21:29.301Z,63.63
2019-04-16T05:23:58.183Z,62.91
2019-04-16T05:26:26.666Z,63.42
2019-04-16T05:28:56.798Z,62.88
2019-04-16T05:31:26.205Z,62.46
2019-04-16T05:33:54.650Z,62.25
2019-04-16T05:36:22.894Z,63.87
2019-04-16T05:38:55.499Z,63.26
2019-04-16T05:41:22.702Z,62.05
2019-04-16T05:43:50.989Z,62.00
2019-04-16T05:46:19.516Z,61.72
2019-04-16T05:48:47.911Z,60.70
2019-04-16T05:51:16.561Z,60.61
2019-04-16T05:53:46.349Z,63.56
2019-04-16T05:56:25.457Z,60.91
2019-04-16T05:58:53.683Z,60.36
2019-04-16T06:01:38.629Z,59.92
2019-04-16T06:04:06.853Z,59.02
2019-04-16T06:06:35.086Z,57.09
2019-04-16T06:09:05.464Z,56.37
2019-04-16T06:11:36.502Z,55.50
2019-04-16T06:14:05.510Z,55.07
2019-04-16T06:16:44.234Z,54.40
2019-04-16T06:19:30.298Z,53.86
2019-04-16T06:22:06.389Z,52.78
2019-04-16T06:24:45.438Z,52.91
2019-04-16T06:27:21.514Z,52.64
2019-04-16T06:30:01.112Z,52.04
2019-04-16T06:32:40.723Z,51.04
2019-04-16T06:35:22.702Z,50.45
2019-04-16T06:38:07.936Z,49.82
2019-04-16T06:40:49.936Z,48.75
2019-04-16T06:43:25.745Z,49.39
2019-04-16T06:45:57.241Z,48.75
2019-04-16T06:48:45.940Z,47.62
2019-04-16T06:51:31.839Z,47.31
2019-04-16T06:54:17.985Z,46.96
2019-04-16T06:56:53.529Z,46.95
2019-04-16T06:59:29.866Z,47.01
2019-04-16T07:02:01.133Z,47.22
2019-04-16T07:04:36.999Z,46.64
2019-04-16T07:07:15.942Z,45.82
2019-04-16T07:09:46.118Z,45.53
2019-04-16T07:12:15.911Z,45.43
2019-04-16T07:14:45.524Z,45.22
2019-04-16T07:17:17.252Z,45.22
2019-04-16T07:19:44.045Z,45.37
2019-04-16T07:22:12.500Z,46.02
2019-04-16T07:24:40.872Z,45.49
2019-04-16T07:27:09.404Z,45.69
2019-04-16T07:29:41.882Z,44.46
2019-04-16T07:32:17.500Z,44.07
2019-04-16T07:34:47.353Z,44.65
2019-04-16T07:37:26.546Z,44.78
2019-04-16T07:40:11.443Z,43.51
2019-04-16T07:42:51.702Z,44.01
2019-04-16T07:45:15.585Z,44.08
2019-04-16T07:47:57.425Z,44.21
2019-04-16T07:50:39.464Z,44.17
2019-04-16T07:53:15.294Z,43.84
2019-04-16T07:55:50.647Z,43.36
2019-04-16T07:58:19.099Z,42.76
2019-04-16T08:00:47.571Z,41.41
2019-04-16T08:03:15.794Z,43.34
2019-04-16T08:05:44.254Z,43.06
2019-04-16T08:08:12.478Z,43.04
2019-04-16T08:10:40.725Z,42.21
2019-04-16T08:13:13.885Z,42.83
2019-04-16T08:15:40.583Z,42.05
2019-04-16T08:18:08.771Z,41.51
2019-04-16T08:20:37.014Z,42.70
2019-04-16T08:23:07.111Z,42.86
2019-04-16T08:25:35.330Z,42.38
2019-04-16T08:28:06.587Z,43.48
2019-04-16T08:30:38.942Z,42.38
2019-04-16T08:33:03.694Z,43.03
2019-04-16T08:35:32.153Z,42.55
2019-04-16T08:38:00.387Z,42.86
2019-04-16T08:40:28.620Z,41.66
2019-04-16T08:42:58.171Z,41.47
2019-04-16T08:45:26.534Z,42.48
2019-04-16T08:47:54.770Z,42.44
2019-04-16T08:50:25.857Z,42.13
2019-04-16T08:52:53.182Z,41.92
2019-04-16T08:55:23.592Z,41.84
2019-04-16T08:57:51.590Z,42.67
2019-04-16T09:00:20.043Z,42.06
2019-04-16T09:02:48.501Z,42.87
2019-04-16T09:05:16.889Z,42.47
2019-04-16T09:07:45.281Z,42.92
2019-04-16T09:10:20.205Z,41.75
2019-04-16T09:12:50.962Z,43.02
2019-04-16T09:15:18.035Z,41.45
2019-04-16T09:17:47.899Z,41.53
2019-04-16T09:20:17.988Z,42.33
2019-04-16T09:22:49.191Z,42.84
2019-04-16T09:25:17.833Z,44.34
2019-04-16T09:27:47.695Z,43.42
2019-04-16T09:30:33.723Z,41.45
2019-04-16T09:33:03.816Z,42.24
2019-04-16T09:35:33.916Z,42.16
2019-04-16T09:38:21.895Z,43.07
2019-04-16T09:41:07.633Z,42.23
2019-04-16T09:43:40.454Z,41.72
2019-04-16T09:46:10.555Z,42.18
2019-04-16T09:48:38.632Z,41.66
2019-04-16T09:51:07.084Z,42.91
2019-04-16T09:53:40.028Z,41.28
2019-04-16T09:56:28.212Z,42.22
2019-04-16T09:58:53.090Z,42.18
2019-04-16T10:01:23.019Z,42.43
2019-04-16T10:03:53.728Z,41.09
2019-04-16T10:06:22.187Z,40.11
2019-04-16T10:08:50.487Z,41.40
2019-04-16T10:11:19.474Z,40.76
2019-04-16T10:13:47.922Z,40.07
2019-04-16T10:16:17.227Z,41.11
2019-04-16T10:18:45.458Z,40.99
2019-04-16T10:21:18.697Z,40.30
2019-04-16T10:24:01.487Z,40.38
2019-04-16T10:26:29.736Z,39.86
2019-04-16T10:28:59.589Z,39.58
2019-04-16T10:31:28.019Z,37.92
2019-04-16T10:33:56.234Z,38.73
2019-04-16T10:36:24.467Z,37.13
2019-04-16T10:39:00.211Z,38.18
2019-04-16T10:41:36.222Z,37.98
2019-04-16T10:44:22.117Z,37.80
2019-04-16T10:47:08.112Z,36.99
2019-04-16T10:49:54.142Z,38.64
2019-04-16T10:52:35.510Z,37.54
2019-04-16T10:55:22.116Z,36.78
2019-04-16T10:58:07.878Z,36.33
2019-04-16T11:00:49.561Z,37.35
2019-04-16T11:03:19.405Z,36.22
2019-04-16T11:06:01.416Z,37.79
2019-04-16T11:08:30.118Z,34.77
2019-04-16T11:10:58.602Z,35.44
2019-04-16T11:13:31.100Z,35.88
2019-04-16T11:16:00.965Z,36.13
2019-04-16T11:18:29.197Z,34.39
2019-04-16T11:20:57.734Z,34.30
2019-04-16T11:23:25.955Z,35.62
2019-04-16T11:25:54.182Z,34.53
2019-04-16T11:28:22.435Z,32.41
2019-04-16T11:30:52.503Z,32.25
2019-04-16T11:33:20.752Z,33.38
2019-04-16T11:35:52.772Z,33.05
2019-04-16T11:38:18.932Z,32.28
2019-04-16T11:40:47.164Z,32.05
2019-04-16T11:43:15.414Z,31.70
2019-04-16T11:45:43.669Z,31.86
2019-04-16T11:48:11.911Z,31.51
2019-04-16T11:50:40.186Z,32.18
2019-04-16T11:53:08.417Z,32.05
2019-04-16T11:55:36.665Z,31.74
2019-04-16T11:58:06.586Z,31.17
2019-04-16T12:00:36.479Z,30.44
2019-04-16T12:03:12.191Z,31.08
2019-04-16T12:05:56.987Z,30.41
2019-04-16T12:08:38.678Z,28.45
2019-04-16T12:11:23.565Z,30.97
2019-04-16T12:13:53.426Z,29.83
2019-04-16T12:16:29.235Z,30.49
2019-04-16T12:19:08.229Z,28.92
2019-04-16T12:21:54.279Z,28.97
2019-04-16T12:24:36.032Z,29.90
2019-04-16T12:27:21.811Z,30.29
2019-04-16T12:29:51.947Z,30.76
2019-04-16T12:32:22.054Z,30.87
2019-04-16T12:34:54.538Z,31.31
2019-04-16T12:37:40.592Z,31.15
2019-04-16T12:40:10.716Z,29.18
2019-04-16T12:42:43.510Z,30.31
2019-04-16T12:45:28.578Z,29.74
2019-04-16T12:47:59.153Z,30.24
2019-04-16T12:50:44.852Z,30.77
2019-04-16T12:53:17.622Z,31.26
2019-04-16T12:56:07.416Z,31.83
2019-04-16T12:58:40.788Z,30.64
2019-04-16T13:01:19.567Z,31.90
2019-04-16T13:03:54.023Z,31.38
2019-04-16T13:06:26.896Z,31.66
2019-04-16T13:08:55.899Z,32.66
2019-04-16T13:11:32.005Z,32.05
2019-04-16T13:14:18.760Z,31.56
2019-04-16T13:16:54.413Z,31.60
2019-04-16T13:19:40.666Z,31.97
2019-04-16T13:22:16.693Z,33.25
2019-04-16T13:24:49.257Z,31.47
2019-04-16T13:27:25.035Z,31.92
2019-04-16T13:29:53.489Z,31.59
2019-04-16T13:32:21.894Z,32.62
2019-04-16T13:34:50.127Z,31.56
2019-04-16T13:37:18.363Z,33.19
2019-04-16T13:39:51.153Z,31.71
2019-04-16T13:42:19.610Z,31.71
2019-04-16T13:44:49.475Z,32.01
2019-04-16T13:47:17.932Z,31.53
2019-04-16T13:49:56.599Z,32.23
2019-04-16T13:52:25.505Z,31.71
2019-04-16T13:55:01.112Z,31.82
2019-04-16T13:57:45.801Z,31.42
2019-04-16T14:00:27.385Z,31.12
2019-04-16T14:02:57.263Z,30.52
2019-04-16T14:05:25.495Z,30.94
2019-04-16T14:07:53.734Z,30.21
2019-04-16T14:10:22.313Z,30.50
2019-04-16T14:12:50.717Z,29.32
2019-04-16T14:15:31.225Z,30.58
2019-04-16T14:17:52.853Z,31.12
2019-04-16T14:20:20.256Z,31.40
2019-04-16T14:22:53.331Z,30.87
2019-04-16T14:25:18.520Z,30.08
2019-04-16T14:27:46.740Z,30.11
2019-04-16T14:30:16.699Z,30.12
2019-04-16T14:32:45.151Z,31.15
2019-04-16T14:35:15.088Z,31.32
2019-04-16T14:37:43.318Z,31.41
2019-04-16T14:40:22.501Z,30.94
2019-04-16T14:42:56.033Z,31.53
2019-04-16T14:45:53.415Z,31.86
2019-04-16T14:48:08.889Z,31.34
2019-04-16T14:50:35.281Z,31.35
2019-04-16T14:53:03.514Z,32.71
2019-04-16T14:55:59.716Z,31.90
2019-04-16T14:58:28.719Z,31.97
2019-04-16T15:01:01.232Z,32.29
2019-04-16T15:03:43.298Z,31.89
2019-04-16T15:06:11.941Z,32.67
2019-04-16T15:08:57.707Z,32.62
2019-04-16T15:11:27.581Z,33.38
2019-04-16T15:14:12.302Z,33.32
2019-04-16T15:16:57.956Z,33.95
2019-04-16T15:19:42.757Z,33.49
2019-04-16T15:22:18.732Z,34.11
2019-04-16T15:25:00.378Z,33.61
2019-04-16T15:27:36.211Z,33.94
2019-04-16T15:30:17.837Z,34.06
2019-04-16T15:33:05.551Z,34.34
2019-04-16T15:35:31.397Z,34.22
2019-04-16T15:38:15.728Z,33.61
2019-04-16T15:40:47.231Z,32.58
2019-04-16T15:43:34.811Z,32.24
2019-04-16T15:46:12.998Z,32.85
2019-04-16T15:48:54.741Z,32.73
2019-04-16T15:51:30.809Z,33.07
2019-04-16T15:54:03.577Z,32.06
2019-04-16T15:56:42.587Z,31.26
2019-04-16T15:59:15.338Z,31.32
2019-04-16T16:01:47.924Z,31.96
2019-04-16T16:04:18.103Z,31.62
2019-04-16T16:06:53.921Z,32.07
2019-04-16T16:09:23.803Z,31.20
2019-04-16T16:11:59.733Z,31.76
2019-04-16T16:14:33.173Z,32.23
2019-04-16T16:16:58.155Z,32.20
2019-04-16T16:19:26.452Z,32.15
2019-04-16T16:21:54.632Z,32.00
2019-04-16T16:24:22.862Z,32.88
2019-04-16T16:26:51.333Z,32.01
2019-04-16T16:29:19.787Z,33.84
2019-04-16T16:31:48.278Z,33.63
2019-04-16T16:34:16.509Z,33.87
2019-04-16T16:36:44.962Z,34.08
2019-04-16T16:39:13.434Z,34.21
2019-04-16T16:41:41.673Z,34.55
2019-04-16T16:44:09.906Z,34.79
2019-04-16T16:46:56.547Z,35.48
2019-04-16T16:49:18.501Z,35.39
2019-04-16T16:52:06.693Z,35.35
2019-04-16T16:54:34.910Z,35.53
2019-04-16T16:57:13.687Z,35.75
2019-04-16T16:59:49.974Z,35.99
2019-04-16T17:02:19.853Z,36.11
2019-04-16T17:04:49.739Z,36.32
2019-04-16T17:07:18.123Z,36.79
2019-04-16T17:09:46.568Z,37.00
2019-04-16T17:12:14.807Z,37.06
2019-04-16T17:14:43.042Z,38.90
2019-04-16T17:17:14.894Z,37.78
2019-04-16T17:19:41.928Z,37.77
2019-04-16T17:22:10.150Z,37.89
2019-04-16T17:24:38.392Z,38.27
2019-04-16T17:27:07.023Z,38.75
2019-04-16T17:29:35.323Z,38.72
2019-04-16T17:32:03.557Z,39.16
2019-04-16T17:34:31.790Z,39.21
2019-04-16T17:37:00.017Z,39.49
2019-04-16T17:39:32.855Z,39.49
2019-04-16T17:42:05.684Z,39.83
2019-04-16T17:44:41.911Z,39.82
2019-04-16T17:47:32.483Z,40.41
2019-04-16T17:50:10.693Z,40.56
2019-04-16T17:52:49.576Z,41.30
2019-04-16T17:55:25.178Z,40.87
2019-04-16T17:57:55.051Z,41.37
2019-04-16T18:00:34.619Z,41.66
2019-04-16T18:03:21.623Z,41.42
2019-04-16T18:05:51.494Z,42.15
2019-04-16T18:08:21.370Z,42.21
2019-04-16T18:10:54.614Z,42.35
2019-04-16T18:13:31.871Z,42.44
2019-04-16T18:16:07.833Z,42.85
2019-04-16T18:18:46.470Z,43.19
2019-04-16T18:21:22.086Z,42.98
2019-04-16T18:24:10.113Z,43.41
2019-04-16T18:26:49.063Z,43.12
2019-04-16T18:29:31.785Z,43.18
2019-04-16T18:32:06.018Z,43.27
2019-04-16T18:34:43.473Z,43.83
2019-04-16T18:37:15.989Z,43.81
2019-04-16T18:39:57.832Z,44.38
2019-04-16T18:42:45.982Z,43.76
2019-04-16T18:45:18.891Z,43.88
2019-04-16T18:48:02.951Z,44.45
2019-04-16T18:50:26.090Z,44.92
2019-04-16T18:52:53.576Z,45.00
2019-04-16T18:55:22.243Z,45.39
2019-04-16T18:57:50.721Z,46.14
2019-04-16T19:00:31.922Z,46.71
2019-04-16T19:02:59.678Z,47.01
2019-04-16T19:05:28.079Z,47.52
2019-04-16T19:07:59.806Z,46.88
2019-04-16T19:10:26.279Z,47.32
2019-04-16T19:12:54.567Z,47.86
2019-04-16T19:15:22.770Z,47.49
2019-04-16T19:17:51.230Z,47.63
2019-04-16T19:20:19.769Z,47.61
2019-04-16T19:22:49.796Z,47.76
2019-04-16T19:25:17.957Z,47.50
2019-04-16T19:27:48.924Z,47.68
2019-04-16T19:30:16.662Z,47.44
2019-04-16T19:32:44.898Z,47.77
2019-04-16T19:35:17.642Z,47.53
2019-04-16T19:37:43.151Z,47.32
2019-04-16T19:40:11.717Z,48.40
2019-04-16T19:42:39.952Z,47.48
2019-04-16T19:45:08.657Z,48.09
2019-04-16T19:47:38.360Z,47.68
2019-04-16T19:50:06.659Z,47.42
2019-04-16T19:52:35.122Z,48.96
2019-04-16T19:55:04.267Z,48.41
2019-04-16T19:57:32.505Z,47.72
2019-04-16T20:00:00.763Z,48.30
2019-04-16T20:02:32.964Z,48.30
2019-04-16T20:04:59.141Z,48.50
2019-04-16T20:07:32.673Z,48.28
2019-04-16T20:09:57.554Z,49.12
2019-04-16T20:12:28.004Z,50.73
2019-04-16T20:14:56.213Z,51.41
2019-04-16T20:17:24.672Z,51.78
2019-04-16T20:19:58.823Z,51.82
2019-04-16T20:22:30.773Z,51.97
2019-04-16T20:24:59.403Z,52.32
2019-04-16T20:27:27.855Z,52.38
2019-04-16T20:29:56.089Z,52.68
2019-04-16T20:32:25.507Z,52.90
2019-04-16T20:34:53.768Z,53.00
2019-04-16T20:37:21.995Z,53.27
2019-04-16T20:39:50.474Z,53.03
2019-04-16T20:42:18.772Z,52.58
2019-04-16T20:44:47.012Z,52.46
2019-04-16T20:47:15.267Z,52.38
2019-04-16T20:49:45.967Z,52.24
2019-04-16T20:52:13.676Z,52.58
2019-04-16T20:54:44.349Z,52.61
2019-04-16T20:57:13.401Z,53.16
2019-04-16T20:59:41.634Z,53.32
2019-04-16T21:02:10.160Z,53.79
2019-04-16T21:04:38.408Z,54.19
2019-04-16T21:07:06.635Z,53.83
2019-04-16T21:09:35.086Z,54.78
2019-04-16T21:12:03.589Z,55.27
2019-04-16T21:14:31.826Z,56.12
2019-04-16T21:17:05.751Z,55.11
2019-04-16T21:19:48.132Z,55.09
2019-04-16T21:22:17.702Z,56.13
2019-04-16T21:24:46.261Z,55.76
2019-04-16T21:27:14.883Z,56.53
2019-04-16T21:29:43.347Z,56.97
2019-04-16T21:32:24.917Z,56.98
2019-04-16T21:35:06.955Z,57.17
2019-04-16T21:37:46.050Z,56.72
2019-04-16T21:40:14.742Z,56.63
2019-04-16T21:42:43.202Z,56.88
2019-04-16T21:45:13.683Z,57.29
2019-04-16T21:47:41.606Z,57.16
2019-04-16T21:50:09.972Z,57.34
2019-04-16T21:52:38.230Z,57.62
2019-04-16T21:55:07.887Z,57.58
2019-04-16T21:57:36.365Z,57.49
2019-04-16T22:00:08.672Z,57.07
2019-04-16T22:02:38.970Z,57.00
2019-04-16T22:05:08.015Z,56.98
2019-04-16T22:07:36.247Z,56.96
2019-04-16T22:10:04.816Z,57.19
2019-04-16T22:12:33.046Z,57.17
2019-04-16T22:15:01.504Z,56.88
2019-04-16T22:17:35.454Z,57.25
2019-04-16T22:20:03.494Z,57.25
2019-04-16T22:22:29.874Z,57.36
2019-04-16T22:24:58.323Z,57.82
2019-04-16T22:27:26.564Z,57.55
2019-04-16T22:29:54.787Z,57.19
2019-04-16T22:32:23.249Z,57.55
2019-04-16T22:34:51.473Z,57.16
2019-04-16T22:37:19.712Z,57.84
2019-04-16T22:40:07.533Z,57.56
2019-04-16T22:42:56.698Z,57.73
2019-04-16T22:45:33.243Z,57.24
2019-04-16T22:48:01.705Z,58.01
2019-04-16T22:50:29.932Z,57.70
2019-04-16T22:52:58.170Z,59.93
2019-04-16T22:55:26.493Z,58.21
2019-04-16T22:57:54.730Z,58.28
2019-04-16T23:00:27.863Z,59.68
2019-04-16T23:02:56.342Z,60.66
2019-04-16T23:05:27.719Z,58.85
2019-04-16T23:07:54.993Z,59.79
2019-04-16T23:10:23.434Z,60.16
2019-04-16T23:12:51.669Z,59.33
2019-04-16T23:15:19.900Z,59.47
2019-04-16T23:17:48.361Z,61.17
2019-04-16T23:20:28.614Z,59.45
2019-04-16T23:22:47.653Z,60.20
2019-04-16T23:25:16.174Z,59.84
2019-04-16T23:27:44.397Z,60.13
2019-04-16T23:30:12.699Z,60.67
2019-04-16T23:32:40.930Z,60.94
2019-04-16T23:35:10.733Z,60.63
2019-04-16T23:37:39.128Z,61.37
2019-04-16T23:40:10.784Z,61.48
2019-04-16T23:42:39.673Z,61.29
2019-04-16T23:45:31.112Z,62.12
2019-04-16T23:47:57.579Z,61.16
2019-04-16T23:50:44.802Z,62.06
2019-04-16T23:53:08.997Z,61.46
2019-04-16T23:55:51.329Z,61.64
2019-04-16T23:58:28.598Z,61.16
